createdAt,value
2018-08-28T00:02:33.359Z,4.43
2018-08-28T00:07:36.937Z,4.10
2018-08-28T00:12:40.487Z,4.13
2018-08-28T00:17:44.034Z,4.50
2018-08-28T00:22:47.543Z,4.23
2018-08-28T00:27:51.099Z,4.17
2018-08-28T00:32:54.646Z,3.37
2018-08-28T00:37:58.177Z,5.07
2018-08-28T00:43:01.649Z,3.87
2018-08-28T00:48:05.337Z,4.30
2018-08-28T00:53:08.867Z,4.40
2018-08-28T00:58:12.581Z,4.33
2018-08-28T01:03:16.049Z,3.53
2018-08-28T01:08:19.641Z,3.70
2018-08-28T01:13:23.171Z,4.47
2018-08-28T01:18:26.713Z,3.67
2018-08-28T01:23:33.272Z,3.70
2018-08-28T01:28:36.864Z,3.20
2018-08-28T01:33:40.348Z,4.27
2018-08-28T01:38:43.915Z,3.77
2018-08-28T01:43:47.421Z,3.93
2018-08-28T01:48:51.357Z,3.13
2018-08-28T01:53:54.864Z,4.80
2018-08-28T01:58:58.463Z,3.80
2018-08-28T02:04:02.122Z,3.80
2018-08-28T02:09:07.445Z,4.53
2018-08-28T02:14:10.885Z,3.53
2018-08-28T02:19:14.401Z,3.50
2018-08-28T02:24:17.911Z,3.07
2018-08-28T02:29:21.433Z,3.77
2018-08-28T02:34:24.890Z,3.13
2018-08-28T02:39:28.438Z,3.93
2018-08-28T02:44:32.270Z,3.67
2018-08-28T02:49:35.791Z,3.70
2018-08-28T02:54:39.520Z,3.63
2018-08-28T02:59:43.236Z,3.60
2018-08-28T03:04:46.931Z,4.03
2018-08-28T03:09:50.458Z,4.43
2018-08-28T03:14:53.978Z,3.23
2018-08-28T03:19:57.522Z,4.00
2018-08-28T03:25:01.178Z,3.57
2018-08-28T03:30:04.757Z,4.50
2018-08-28T03:35:08.268Z,4.97
2018-08-28T03:40:11.779Z,4.40
2018-08-28T03:45:15.331Z,3.60
2018-08-28T03:50:18.867Z,4.33
2018-08-28T03:55:22.379Z,4.53
2018-08-28T04:05:36.525Z,4.63
2018-08-28T04:10:40.219Z,4.07
2018-08-28T04:15:43.777Z,4.47
2018-08-28T04:20:47.314Z,4.40
2018-08-28T04:25:50.998Z,5.23
2018-08-28T04:31:03.738Z,4.60
2018-08-28T04:36:07.208Z,4.77
2018-08-28T04:41:11.126Z,4.57
2018-08-28T04:46:14.667Z,3.73
2018-08-28T04:51:18.424Z,4.37
2018-08-28T04:56:21.948Z,3.77
2018-08-28T05:01:25.484Z,5.55
2018-08-28T05:06:29.189Z,5.20
2018-08-28T05:11:32.741Z,5.83
2018-08-28T05:16:36.256Z,6.97
2018-08-28T05:21:39.878Z,9.97
2018-08-28T05:26:43.670Z,10.87
2018-08-28T05:31:47.192Z,8.97
2018-08-28T05:36:50.837Z,7.73
2018-08-28T05:41:54.555Z,6.10
2018-08-28T05:46:58.049Z,6.17
2018-08-28T05:52:01.622Z,6.60
2018-08-28T05:57:05.139Z,7.37
2018-08-28T06:02:09.045Z,7.80
2018-08-28T06:07:12.605Z,8.63
2018-08-28T06:12:16.290Z,7.03
2018-08-28T06:17:19.916Z,8.53
2018-08-28T06:22:23.557Z,7.07
2018-08-28T06:27:27.272Z,6.37
2018-08-28T06:32:30.837Z,7.30
2018-08-28T06:37:34.312Z,8.50
2018-08-28T06:42:37.845Z,7.83
2018-08-28T06:47:43.209Z,8.80
2018-08-28T06:52:46.754Z,8.87
2018-08-28T06:57:50.216Z,8.23
2018-08-28T07:02:53.740Z,7.73
2018-08-28T07:07:57.283Z,8.37
2018-08-28T07:13:00.809Z,7.93
2018-08-28T07:18:04.580Z,7.20
2018-08-28T07:23:08.136Z,8.43
2018-08-28T07:28:11.606Z,9.73
2018-08-28T07:33:15.316Z,8.17
2018-08-28T07:38:18.991Z,10.00
2018-08-28T07:43:22.547Z,8.80
2018-08-28T07:48:26.102Z,8.73
2018-08-28T07:53:29.625Z,8.47
2018-08-28T07:58:33.068Z,9.10
2018-08-28T08:03:36.607Z,9.10
2018-08-28T08:08:40.119Z,8.10
2018-08-28T08:13:43.662Z,8.43
2018-08-28T08:18:47.120Z,8.97
2018-08-28T08:23:50.941Z,9.30
2018-08-28T08:28:54.461Z,7.97
2018-08-28T08:33:58.062Z,8.93
2018-08-28T08:39:01.634Z,7.57
2018-08-28T08:44:05.477Z,8.87
2018-08-28T08:49:09.250Z,8.33
2018-08-28T08:54:12.856Z,7.50
2018-08-28T08:59:16.481Z,7.73
2018-08-28T09:04:20.130Z,6.47
2018-08-28T09:09:23.659Z,7.77
2018-08-28T09:14:27.209Z,8.07
2018-08-28T09:19:30.772Z,7.33
2018-08-28T09:24:34.404Z,7.47
2018-08-28T09:29:37.978Z,6.17
2018-08-28T09:34:41.569Z,5.43
2018-08-28T09:39:45.049Z,6.17
2018-08-28T09:44:48.804Z,4.83
2018-08-28T09:49:52.390Z,6.27
2018-08-28T09:54:55.892Z,7.13
2018-08-28T09:59:59.344Z,5.60
2018-08-28T10:05:02.897Z,6.13
2018-08-28T10:10:06.394Z,4.87
2018-08-28T10:15:10.189Z,5.57
2018-08-28T10:20:13.733Z,6.03
2018-08-28T10:25:17.238Z,4.97
2018-08-28T10:30:28.231Z,5.23
2018-08-28T10:35:31.758Z,4.83
2018-08-28T10:40:35.232Z,5.40
2018-08-28T10:45:42.039Z,4.73
2018-08-28T10:50:45.669Z,5.73
2018-08-28T10:55:49.577Z,4.87
2018-08-28T11:00:53.109Z,5.47
2018-08-28T11:05:56.746Z,5.00
2018-08-28T11:11:00.409Z,5.30
2018-08-28T11:16:03.979Z,4.93
2018-08-28T11:21:07.622Z,5.13
2018-08-28T11:26:11.195Z,5.03
2018-08-28T11:31:14.857Z,4.97
2018-08-28T11:36:18.435Z,4.37
2018-08-28T11:41:22.140Z,4.37
2018-08-28T11:46:25.678Z,6.50
2018-08-28T11:51:29.331Z,4.97
2018-08-28T11:56:32.879Z,6.43
2018-08-28T12:01:36.426Z,5.60
2018-08-28T12:06:40.233Z,4.87
2018-08-28T12:11:43.823Z,5.33
2018-08-28T12:16:47.391Z,5.90
2018-08-28T12:21:50.881Z,6.33
2018-08-28T12:26:54.436Z,5.80
2018-08-28T12:31:57.895Z,5.97
2018-08-28T12:37:01.457Z,6.13
2018-08-28T12:42:05.079Z,4.87
2018-08-28T12:47:08.669Z,4.83
2018-08-28T12:52:12.226Z,6.40
2018-08-28T12:57:15.862Z,6.40
2018-08-28T13:02:19.447Z,6.27
2018-08-28T13:07:23.275Z,5.80
2018-08-28T13:12:26.814Z,6.67
2018-08-28T13:17:30.508Z,7.87
2018-08-28T13:22:34.027Z,7.30
2018-08-28T13:27:37.568Z,5.53
2018-08-28T13:32:41.022Z,5.77
2018-08-28T13:37:44.559Z,6.20
2018-08-28T13:42:48.047Z,6.03
2018-08-28T13:47:51.578Z,5.57
2018-08-28T13:52:56.342Z,8.13
2018-08-28T13:57:59.908Z,7.47
2018-08-28T14:03:03.637Z,6.33
2018-08-28T14:08:07.244Z,6.30
2018-08-28T14:13:10.753Z,7.87
2018-08-28T14:18:14.602Z,6.30
2018-08-28T14:23:18.171Z,7.47
2018-08-28T14:28:21.687Z,6.83
2018-08-28T14:33:25.152Z,6.57
2018-08-28T14:38:28.728Z,6.70
2018-08-28T14:43:32.317Z,6.13
2018-08-28T14:48:35.877Z,5.90
2018-08-28T14:53:39.419Z,6.37
2018-08-28T14:58:42.961Z,6.37
2018-08-28T15:03:46.602Z,5.33
2018-08-28T15:08:50.125Z,6.23
2018-08-28T15:13:53.719Z,7.13
2018-08-28T15:18:57.436Z,5.77
2018-08-28T15:24:00.925Z,5.87
2018-08-28T15:29:04.507Z,7.37
2018-08-28T15:34:07.988Z,6.37
2018-08-28T15:39:11.557Z,6.77
2018-08-28T15:44:15.145Z,5.90
2018-08-28T15:49:18.748Z,5.70
2018-08-28T15:54:22.312Z,8.13
2018-08-28T15:59:25.909Z,7.10
2018-08-28T16:04:29.447Z,7.07
2018-08-28T16:09:32.945Z,5.93
2018-08-28T16:14:36.718Z,6.83
2018-08-28T16:19:40.278Z,6.10
2018-08-28T16:24:43.889Z,7.23
2018-08-28T16:29:49.856Z,6.87
2018-08-28T16:34:53.517Z,7.17
2018-08-28T16:39:57.053Z,8.17
2018-08-28T16:45:01.118Z,8.63
2018-08-28T16:50:04.826Z,7.87
2018-08-28T16:55:08.379Z,7.57
2018-08-28T17:00:12.213Z,6.60
2018-08-28T17:05:15.810Z,6.90
2018-08-28T17:10:19.382Z,7.07
2018-08-28T17:15:22.985Z,7.93
2018-08-28T17:20:26.541Z,6.93
2018-08-28T17:25:30.029Z,6.57
2018-08-28T17:30:33.603Z,6.23
2018-08-28T17:35:37.074Z,7.53
2018-08-28T17:40:40.631Z,7.00
2018-08-28T17:45:44.139Z,7.20
2018-08-28T17:50:47.776Z,6.50
2018-08-28T17:55:51.250Z,7.10
2018-08-28T18:00:54.787Z,7.13
2018-08-28T18:05:58.341Z,8.47
2018-08-28T18:11:02.425Z,8.70
2018-08-28T18:16:05.949Z,7.77
2018-08-28T18:21:09.452Z,7.53
2018-08-28T18:26:12.953Z,7.80
2018-08-28T18:31:16.561Z,8.57
2018-08-28T18:36:20.510Z,7.63
2018-08-28T18:41:24.102Z,8.10
2018-08-28T18:46:28.212Z,9.10
2018-08-28T18:51:31.751Z,8.83
2018-08-28T18:56:35.263Z,7.73
2018-08-28T19:01:38.798Z,7.70
2018-08-28T19:06:42.357Z,7.83
2018-08-28T19:11:45.916Z,7.97
2018-08-28T19:16:50.414Z,8.70
2018-08-28T19:21:54.014Z,8.13
2018-08-28T19:26:57.957Z,8.23
2018-08-28T19:32:01.490Z,7.40
2018-08-28T19:37:13.067Z,7.57
2018-08-28T19:42:16.616Z,7.30
2018-08-28T19:47:20.073Z,7.30
2018-08-28T19:52:24.495Z,8.37
2018-08-28T19:57:28.016Z,8.20
2018-08-28T20:02:31.575Z,8.07
2018-08-28T20:07:35.306Z,8.47
2018-08-28T20:12:38.995Z,8.13
2018-08-28T20:17:42.630Z,8.03
2018-08-28T20:22:46.176Z,7.77
2018-08-28T20:27:49.732Z,8.40
2018-08-28T20:32:53.286Z,7.37
2018-08-28T20:37:56.754Z,8.17
2018-08-28T20:43:00.314Z,9.13
2018-08-28T20:48:03.865Z,7.80
2018-08-28T20:53:07.702Z,8.90
2018-08-28T20:58:11.181Z,7.33
2018-08-28T21:03:14.733Z,6.97
2018-08-28T21:08:18.227Z,8.10
2018-08-28T21:13:21.788Z,8.53
2018-08-28T21:18:25.373Z,7.03
2018-08-28T21:23:28.873Z,6.73
2018-08-28T21:28:32.357Z,8.00
2018-08-28T21:33:36.056Z,6.80
2018-08-28T21:38:39.628Z,8.23
2018-08-28T21:43:43.389Z,7.70
2018-08-28T21:48:47.114Z,7.63
2018-08-28T21:53:50.869Z,8.80
2018-08-28T21:58:54.639Z,7.80
2018-08-28T22:03:58.255Z,8.63
2018-08-28T22:09:01.701Z,7.83
2018-08-28T22:14:05.298Z,8.37
2018-08-28T22:19:08.891Z,8.27
2018-08-28T22:24:12.407Z,8.43
2018-08-28T22:29:16.362Z,7.57
2018-08-28T22:34:19.935Z,8.10
2018-08-28T22:39:23.424Z,7.77
2018-08-28T22:44:34.200Z,8.00
2018-08-28T22:49:37.744Z,7.27
2018-08-28T22:54:41.213Z,7.00
2018-08-28T22:59:44.745Z,7.53
2018-08-28T23:04:48.285Z,7.87
2018-08-28T23:09:51.853Z,7.37
2018-08-28T23:14:55.453Z,7.63
2018-08-28T23:19:59.969Z,7.07
2018-08-28T23:25:03.526Z,7.70
2018-08-28T23:30:09.808Z,7.77
2018-08-28T23:35:13.455Z,7.70
2018-08-28T23:40:17.036Z,8.43
2018-08-28T23:45:20.823Z,7.63
2018-08-28T23:50:24.365Z,8.70
2018-08-28T23:55:27.857Z,8.07
